createdAt,value
2023-05-02T00:00:49.933Z,99490.13
2023-05-02T00:01:52.219Z,99483.44
2023-05-02T00:02:54.865Z,99484.97
2023-05-02T00:03:57.327Z,99486.63
2023-05-02T00:04:59.497Z,99481.34
2023-05-02T00:06:01.878Z,99479.72
2023-05-02T00:07:04.334Z,99468.50
2023-05-02T00:08:06.645Z,99482.78
2023-05-02T00:09:08.872Z,99471.41
2023-05-02T00:10:11.070Z,99479.94
2023-05-02T00:11:14.322Z,99477.81
2023-05-02T00:12:16.498Z,99481.19
2023-05-02T00:13:18.687Z,99477.09
2023-05-02T00:14:20.910Z,99469.31
2023-05-02T00:15:23.101Z,99470.25
2023-05-02T00:16:25.296Z,99475.94
2023-05-02T00:17:27.606Z,99469.47
2023-05-02T00:18:29.843Z,99478.22
2023-05-02T00:19:31.994Z,99474.06
2023-05-02T00:20:34.149Z,99470.22
2023-05-02T00:21:36.324Z,99471.00
2023-05-02T00:22:39.105Z,99478.16
2023-05-02T00:23:41.433Z,99477.66
2023-05-02T00:24:43.635Z,99478.63
2023-05-02T00:25:46.186Z,99477.00
2023-05-02T00:26:48.564Z,99484.81
2023-05-02T00:27:51.240Z,99487.63
2023-05-02T00:28:53.556Z,99481.69
2023-05-02T00:29:55.755Z,99475.88
2023-05-02T00:30:59.483Z,99490.81
2023-05-02T00:32:01.900Z,99477.63
2023-05-02T00:33:06.904Z,99480.94
2023-05-02T00:34:09.133Z,99490.41
2023-05-02T00:35:11.776Z,99481.06
2023-05-02T00:36:16.518Z,99486.25
2023-05-02T00:37:19.661Z,99480.28
2023-05-02T00:38:21.831Z,99480.78
2023-05-02T00:39:24.235Z,99477.66
2023-05-02T00:40:26.407Z,99478.03
2023-05-02T00:41:28.591Z,99482.97
2023-05-02T00:42:34.537Z,99480.34
2023-05-02T00:43:37.174Z,99481.22
2023-05-02T00:44:40.445Z,99479.47
2023-05-02T00:45:44.090Z,99475.16
2023-05-02T00:46:47.133Z,99481.28
2023-05-02T00:47:50.595Z,99477.94
2023-05-02T00:48:52.982Z,99478.09
2023-05-02T00:49:55.326Z,99474.59
2023-05-02T00:50:58.224Z,99476.34
2023-05-02T00:52:00.800Z,99480.66
2023-05-02T00:53:04.644Z,99472.94
2023-05-02T00:54:06.931Z,99483.34
2023-05-02T00:55:09.174Z,99481.88
2023-05-02T00:56:11.787Z,99477.88
2023-05-02T00:57:13.926Z,99477.94
2023-05-02T00:58:18.555Z,99476.44
2023-05-02T00:59:21.002Z,99475.81
2023-05-02T01:00:33.797Z,99480.28
2023-05-02T01:02:11.578Z,99481.88
2023-05-02T01:03:36.450Z,99475.09
2023-05-02T01:05:03.499Z,99476.09
2023-05-02T01:06:17.808Z,99480.56
2023-05-02T01:07:25.695Z,99480.34
2023-05-02T01:08:38.921Z,99482.97
2023-05-02T01:10:00.264Z,99483.34
2023-05-02T01:11:15.149Z,99478.03
2023-05-02T01:12:43.011Z,99478.44
2023-05-02T01:13:46.876Z,99480.94
2023-05-02T01:14:56.740Z,99483.69
2023-05-02T01:16:01.336Z,99482.72
2023-05-02T01:17:08.203Z,99480.78
2023-05-02T01:18:13.335Z,99479.84
2023-05-02T01:19:29.208Z,99485.09
2023-05-02T01:20:34.622Z,99482.91
2023-05-02T01:21:37.582Z,99493.09
2023-05-02T01:22:41.294Z,99497.31
2023-05-02T01:23:53.224Z,99490.81
2023-05-02T01:25:20.399Z,99488.53
2023-05-02T01:26:32.943Z,99501.34
2023-05-02T01:27:47.918Z,99494.00
2023-05-02T01:28:59.489Z,99495.81
2023-05-02T01:30:03.437Z,99493.19
2023-05-02T01:31:07.154Z,99488.72
2023-05-02T01:32:12.144Z,99492.75
2023-05-02T01:33:17.670Z,99491.56
2023-05-02T01:34:21.915Z,99487.81
2023-05-02T01:35:25.741Z,99482.31
2023-05-02T01:36:32.392Z,99489.41
2023-05-02T01:37:38.189Z,99489.63
2023-05-02T01:38:43.569Z,99481.75
2023-05-02T01:39:47.998Z,99494.97
2023-05-02T01:40:52.216Z,99494.13
2023-05-02T01:41:56.753Z,99496.91
2023-05-02T01:43:00.721Z,99491.13
2023-05-02T01:44:04.710Z,99498.69
2023-05-02T01:45:08.647Z,99502.06
2023-05-02T01:46:11.846Z,99496.69
2023-05-02T01:47:15.258Z,99495.88
2023-05-02T01:48:19.251Z,99501.31
2023-05-02T01:49:23.223Z,99505.00
2023-05-02T01:50:27.079Z,99507.06
2023-05-02T01:51:33.060Z,99507.06
2023-05-02T01:52:37.167Z,99503.59
2023-05-02T01:53:40.608Z,99503.88
2023-05-02T01:54:43.725Z,99504.94
2023-05-02T01:55:47.025Z,99512.81
2023-05-02T01:56:50.068Z,99508.94
2023-05-02T01:57:54.842Z,99514.16
2023-05-02T01:58:57.328Z,99510.34
2023-05-02T02:00:00.643Z,99508.41
2023-05-02T02:02:12.901Z,99517.25
2023-05-02T02:03:17.415Z,99518.81
2023-05-02T02:04:20.893Z,99521.44
2023-05-02T02:05:24.915Z,99518.75
2023-05-02T02:06:27.690Z,99506.56
2023-05-02T02:07:30.383Z,99522.41
2023-05-02T02:08:32.548Z,99522.28
2023-05-02T02:09:34.886Z,99521.81
2023-05-02T02:10:41.977Z,99524.97
2023-05-02T02:11:49.121Z,99524.78
2023-05-02T02:12:54.137Z,99529.94
2023-05-02T02:14:06.432Z,99533.63
2023-05-02T02:15:28.337Z,99537.16
2023-05-02T02:16:33.152Z,99538.88
2023-05-02T02:17:39.667Z,99532.03
2023-05-02T02:18:45.365Z,99540.91
2023-05-02T02:19:48.298Z,99541.34
2023-05-02T02:20:53.511Z,99541.00
2023-05-02T02:21:58.617Z,99540.47
2023-05-02T02:23:05.165Z,99550.03
2023-05-02T02:24:07.742Z,99554.34
2023-05-02T02:25:15.994Z,99554.44
2023-05-02T02:26:20.890Z,99551.22
2023-05-02T02:27:23.130Z,99559.09
2023-05-02T02:28:25.399Z,99566.25
2023-05-02T02:29:28.001Z,99558.19
2023-05-02T02:30:30.209Z,99566.47
2023-05-02T02:31:34.592Z,99559.59
2023-05-02T02:32:37.158Z,99565.03
2023-05-02T02:33:39.992Z,99567.91
2023-05-02T02:34:42.299Z,99567.69
2023-05-02T02:35:50.455Z,99567.47
2023-05-02T02:37:00.669Z,99572.78
2023-05-02T02:38:14.627Z,99581.25
2023-05-02T02:39:45.957Z,99575.97
2023-05-02T02:40:55.967Z,99577.06
2023-05-02T02:42:09.930Z,99581.84
2023-05-02T02:43:32.408Z,99582.88
2023-05-02T02:44:47.564Z,99585.41
2023-05-02T02:46:11.617Z,99579.38
2023-05-02T02:47:24.694Z,99577.81
2023-05-02T02:48:37.379Z,99579.81
2023-05-02T02:49:56.255Z,99583.97
2023-05-02T02:51:15.860Z,99581.78
2023-05-02T02:52:33.046Z,99592.09
2023-05-02T02:53:53.575Z,99572.78
2023-05-02T02:55:00.689Z,99577.25
2023-05-02T02:56:09.354Z,99573.88
2023-05-02T02:57:29.698Z,99579.00
2023-05-02T02:59:00.420Z,99571.94
2023-05-02T03:00:13.608Z,99564.97
2023-05-02T03:01:22.167Z,99576.22
2023-05-02T03:02:29.356Z,99578.00
2023-05-02T03:03:32.961Z,99582.41
2023-05-02T03:04:40.863Z,99581.78
2023-05-02T03:05:44.329Z,99580.31
2023-05-02T03:06:46.956Z,99578.56
2023-05-02T03:07:49.237Z,99587.59
2023-05-02T03:08:52.083Z,99578.31
2023-05-02T03:09:58.132Z,99581.31
2023-05-02T03:11:00.582Z,99591.69
2023-05-02T03:12:02.844Z,99587.53
2023-05-02T03:13:05.342Z,99593.75
2023-05-02T03:14:07.595Z,99590.22
2023-05-02T03:15:33.869Z,99598.41
2023-05-02T03:16:40.925Z,99599.63
2023-05-02T03:17:48.775Z,99602.28
2023-05-02T03:18:51.360Z,99597.84
2023-05-02T03:19:53.602Z,99597.75
2023-05-02T03:20:55.898Z,99602.69
2023-05-02T03:21:58.279Z,99606.75
2023-05-02T03:23:00.448Z,99600.47
2023-05-02T03:24:03.970Z,99605.50
2023-05-02T03:25:06.618Z,99597.47
2023-05-02T03:26:09.285Z,99605.28
2023-05-02T03:27:12.210Z,99608.56
2023-05-02T03:28:17.126Z,99598.00
2023-05-02T03:29:22.956Z,99609.25
2023-05-02T03:30:25.354Z,99607.28
2023-05-02T03:31:27.883Z,99607.31
2023-05-02T03:32:30.381Z,99613.44
2023-05-02T03:33:32.661Z,99621.47
2023-05-02T03:34:34.802Z,99615.50
2023-05-02T03:35:37.050Z,99613.97
2023-05-02T03:36:39.257Z,99613.50
2023-05-02T03:37:41.514Z,99621.44
2023-05-02T03:38:44.096Z,99618.94
2023-05-02T03:39:48.043Z,99618.34
2023-05-02T03:40:50.342Z,99624.59
2023-05-02T03:41:52.689Z,99618.72
2023-05-02T03:42:58.033Z,99625.88
2023-05-02T03:44:05.540Z,99618.19
2023-05-02T03:45:08.292Z,99613.69
2023-05-02T03:46:11.825Z,99618.19
2023-05-02T03:47:17.800Z,99615.69
2023-05-02T03:48:20.280Z,99620.25
2023-05-02T03:49:22.576Z,99621.25
2023-05-02T03:50:27.623Z,99627.94
2023-05-02T03:51:31.961Z,99628.94
2023-05-02T03:52:34.356Z,99618.34
2023-05-02T03:53:37.256Z,99623.59
2023-05-02T03:54:39.512Z,99622.91
2023-05-02T03:55:43.270Z,99620.06
2023-05-02T03:56:53.218Z,99620.84
2023-05-02T03:58:01.084Z,99623.25
2023-05-02T03:59:03.963Z,99624.75
2023-05-02T04:00:07.266Z,99621.88
2023-05-02T04:01:19.055Z,99620.88
2023-05-02T04:02:25.200Z,99624.34
2023-05-02T04:03:29.963Z,99615.59
2023-05-02T04:04:33.480Z,99627.16
2023-05-02T04:05:36.068Z,99622.75
2023-05-02T04:06:38.359Z,99615.97
2023-05-02T04:07:43.276Z,99629.69
2023-05-02T04:08:45.578Z,99626.00
2023-05-02T04:09:47.853Z,99619.22
2023-05-02T04:10:51.929Z,99626.19
2023-05-02T04:11:54.394Z,99621.72
2023-05-02T04:12:56.634Z,99626.00
2023-05-02T04:13:58.782Z,99632.03
2023-05-02T04:15:01.081Z,99633.84
2023-05-02T04:16:05.527Z,99630.31
2023-05-02T04:17:10.375Z,99637.25
2023-05-02T04:18:17.536Z,99637.09
2023-05-02T04:19:19.831Z,99644.16
2023-05-02T04:20:22.138Z,99640.56
2023-05-02T04:21:27.508Z,99639.72
2023-05-02T04:22:29.704Z,99643.09
2023-05-02T04:23:35.848Z,99647.41
2023-05-02T04:24:39.366Z,99643.91
2023-05-02T04:25:41.641Z,99649.41
2023-05-02T04:26:43.774Z,99651.53
2023-05-02T04:27:48.250Z,99648.81
2023-05-02T04:28:53.690Z,99653.13
2023-05-02T04:29:56.401Z,99652.97
2023-05-02T04:30:58.769Z,99658.09
2023-05-02T04:32:02.432Z,99653.47
2023-05-02T04:33:06.482Z,99662.59
2023-05-02T04:34:11.836Z,99660.13
2023-05-02T04:35:20.190Z,99660.09
2023-05-02T04:36:22.530Z,99664.22
2023-05-02T04:37:25.752Z,99675.06
2023-05-02T04:38:27.991Z,99666.88
2023-05-02T04:39:30.192Z,99662.94
2023-05-02T04:40:37.318Z,99665.94
2023-05-02T04:41:43.102Z,99666.88
2023-05-02T04:42:46.124Z,99669.53
2023-05-02T04:43:55.882Z,99672.22
2023-05-02T04:44:58.169Z,99673.59
2023-05-02T04:46:00.445Z,99681.63
2023-05-02T04:47:09.479Z,99684.47
2023-05-02T04:48:12.311Z,99689.75
2023-05-02T04:49:14.510Z,99693.19
2023-05-02T04:50:16.766Z,99689.56
2023-05-02T04:51:18.946Z,99684.06
2023-05-02T04:52:23.818Z,99685.44
2023-05-02T04:53:26.056Z,99681.75
2023-05-02T04:54:28.840Z,99690.56
2023-05-02T04:55:31.177Z,99688.16
2023-05-02T04:56:33.391Z,99695.91
2023-05-02T04:57:35.787Z,99692.22
2023-05-02T04:58:38.666Z,99704.63
2023-05-02T04:59:44.056Z,99704.75
2023-05-02T05:00:46.284Z,99698.72
2023-05-02T05:01:49.113Z,99701.19
2023-05-02T05:02:51.498Z,99708.06
2023-05-02T05:03:54.932Z,99705.31
2023-05-02T05:04:57.269Z,99699.31
2023-05-02T05:05:59.654Z,99709.81
2023-05-02T05:07:03.057Z,99711.53
2023-05-02T05:08:05.291Z,99707.16
2023-05-02T05:09:10.842Z,99711.56
2023-05-02T05:10:13.636Z,99708.13
2023-05-02T05:11:19.890Z,99709.75
2023-05-02T05:12:22.624Z,99704.28
2023-05-02T05:13:24.864Z,99714.72
2023-05-02T05:14:28.090Z,99717.22
2023-05-02T05:15:31.820Z,99719.63
2023-05-02T05:16:37.417Z,99724.63
2023-05-02T05:17:39.814Z,99729.38
2023-05-02T05:18:43.012Z,99727.28
2023-05-02T05:19:47.876Z,99727.84
2023-05-02T05:20:50.093Z,99728.00
2023-05-02T05:21:52.258Z,99728.19
2023-05-02T05:22:55.971Z,99738.69
2023-05-02T05:23:58.443Z,99735.22
2023-05-02T05:25:03.800Z,99740.25
2023-05-02T05:26:11.296Z,99745.28
2023-05-02T05:27:15.325Z,99738.91
2023-05-02T05:28:18.488Z,99743.97
2023-05-02T05:29:21.004Z,99734.19
2023-05-02T05:30:23.483Z,99748.91
2023-05-02T05:31:25.842Z,99748.22
2023-05-02T05:32:33.428Z,99750.81
2023-05-02T05:33:36.346Z,99745.34
2023-05-02T05:34:39.313Z,99753.91
2023-05-02T05:35:41.675Z,99752.13
2023-05-02T05:36:45.133Z,99753.31
2023-05-02T05:37:47.510Z,99755.19
2023-05-02T05:38:52.174Z,99758.34
2023-05-02T05:39:54.929Z,99755.56
2023-05-02T05:40:57.846Z,99760.59
2023-05-02T05:42:01.358Z,99765.22
2023-05-02T05:43:03.638Z,99766.72
2023-05-02T05:44:09.918Z,99771.94
2023-05-02T05:45:12.598Z,99773.44
2023-05-02T05:46:14.753Z,99767.31
2023-05-02T05:47:22.045Z,99764.38
2023-05-02T05:48:25.963Z,99778.84
2023-05-02T05:49:28.308Z,99769.19
2023-05-02T05:50:30.772Z,99774.53
2023-05-02T05:51:33.128Z,99776.00
2023-05-02T05:52:37.386Z,99772.28
2023-05-02T05:53:39.528Z,99775.97
2023-05-02T05:54:44.624Z,99769.50
2023-05-02T05:55:46.814Z,99777.84
2023-05-02T05:56:49.151Z,99777.75
2023-05-02T05:57:54.144Z,99765.84
2023-05-02T05:58:56.435Z,99774.72
2023-05-02T05:59:58.733Z,99771.31
2023-05-02T06:01:01.988Z,99758.03
2023-05-02T06:02:05.311Z,99764.22
2023-05-02T06:03:09.617Z,99761.56
2023-05-02T06:04:12.563Z,99765.91
2023-05-02T06:05:17.828Z,99772.31
2023-05-02T06:06:20.296Z,99767.56
2023-05-02T06:07:22.580Z,99765.47
2023-05-02T06:08:24.914Z,99770.75
2023-05-02T06:09:27.396Z,99764.78
2023-05-02T06:10:31.082Z,99769.38
2023-05-02T06:11:33.358Z,99764.91
2023-05-02T06:12:36.410Z,99763.13
2023-05-02T06:13:38.745Z,99775.28
2023-05-02T06:14:41.941Z,99772.69
2023-05-02T06:15:44.599Z,99772.16
2023-05-02T06:16:46.936Z,99776.06
2023-05-02T06:17:51.556Z,99770.66
2023-05-02T06:18:53.826Z,99777.00
2023-05-02T06:19:56.058Z,99783.06
2023-05-02T06:20:58.316Z,99780.38
2023-05-02T06:22:00.632Z,99772.22
2023-05-02T06:23:02.808Z,99775.47
2023-05-02T06:24:05.244Z,99788.75
2023-05-02T06:25:08.809Z,99780.09
2023-05-02T06:26:11.240Z,99790.94
2023-05-02T06:27:13.403Z,99783.56
2023-05-02T06:28:15.608Z,99795.31
2023-05-02T06:29:17.863Z,99784.66
2023-05-02T06:30:20.046Z,99787.34
2023-05-02T06:31:22.299Z,99785.44
2023-05-02T06:32:24.497Z,99795.66
2023-05-02T06:33:30.757Z,99793.94
2023-05-02T06:34:33.811Z,99798.75
2023-05-02T06:35:35.983Z,99803.81
2023-05-02T06:36:38.175Z,99808.09
2023-05-02T06:37:40.411Z,99810.78
2023-05-02T06:38:42.598Z,99804.44
2023-05-02T06:39:44.763Z,99805.22
2023-05-02T06:40:47.114Z,99810.09
2023-05-02T06:41:49.332Z,99805.63
2023-05-02T06:42:53.122Z,99803.09
2023-05-02T06:43:55.792Z,99822.69
2023-05-02T06:44:57.971Z,99817.28
2023-05-02T06:46:00.862Z,99814.56
2023-05-02T06:47:05.102Z,99821.81
2023-05-02T06:48:08.166Z,99819.16
2023-05-02T06:49:10.764Z,99820.31
2023-05-02T06:50:13.044Z,99830.41
2023-05-02T06:51:15.526Z,99831.88
2023-05-02T06:52:17.794Z,99827.53
2023-05-02T06:53:20.003Z,99825.47
2023-05-02T06:54:22.153Z,99835.53
2023-05-02T06:55:24.677Z,99831.69
2023-05-02T06:56:27.158Z,99830.16
2023-05-02T06:57:29.394Z,99829.84
2023-05-02T06:58:31.685Z,99833.00
2023-05-02T06:59:33.828Z,99840.38
2023-05-02T07:00:36.011Z,99834.25
2023-05-02T07:01:38.405Z,99840.22
2023-05-02T07:02:40.814Z,99840.69
2023-05-02T07:03:43.046Z,99845.53
2023-05-02T07:04:45.379Z,99835.53
2023-05-02T07:05:47.585Z,99836.97
2023-05-02T07:06:49.796Z,99844.25
2023-05-02T07:07:52.020Z,99844.63
2023-05-02T07:08:54.180Z,99834.34
2023-05-02T07:09:56.348Z,99837.25
2023-05-02T07:10:58.504Z,99845.44
2023-05-02T07:12:03.567Z,99842.97
2023-05-02T07:13:06.850Z,99847.28
2023-05-02T07:14:09.043Z,99849.19
2023-05-02T07:15:11.302Z,99850.84
2023-05-02T07:16:13.995Z,99853.75
2023-05-02T07:17:16.209Z,99855.38
2023-05-02T07:18:18.437Z,99853.28
2023-05-02T07:19:20.706Z,99849.13
2023-05-02T07:20:23.040Z,99851.94
2023-05-02T07:21:25.171Z,99850.78
2023-05-02T07:22:27.481Z,99842.41
2023-05-02T07:23:29.680Z,99854.13
2023-05-02T07:24:31.872Z,99861.13
2023-05-02T07:25:34.053Z,99851.94
2023-05-02T07:26:36.368Z,99850.59
2023-05-02T07:27:38.597Z,99859.34
2023-05-02T07:28:40.840Z,99852.41
2023-05-02T07:29:43.113Z,99853.16
2023-05-02T07:30:45.354Z,99850.09
2023-05-02T07:31:47.635Z,99849.50
2023-05-02T07:32:49.910Z,99855.09
2023-05-02T07:33:52.100Z,99851.81
2023-05-02T07:34:55.082Z,99857.31
2023-05-02T07:35:57.485Z,99862.75
2023-05-02T07:36:59.602Z,99854.16
2023-05-02T07:38:01.855Z,99847.53
2023-05-02T07:39:04.293Z,99849.09
2023-05-02T07:40:07.860Z,99846.50
2023-05-02T07:41:10.073Z,99853.34
2023-05-02T07:42:12.197Z,99862.94
2023-05-02T07:43:15.264Z,99852.28
2023-05-02T07:44:17.452Z,99849.28
2023-05-02T07:45:19.826Z,99854.13
2023-05-02T07:46:22.039Z,99851.25
2023-05-02T07:47:24.340Z,99855.44
2023-05-02T07:48:27.874Z,99850.34
2023-05-02T07:49:31.250Z,99854.25
2023-05-02T07:50:33.453Z,99850.38
2023-05-02T07:51:35.749Z,99854.34
2023-05-02T07:52:37.930Z,99855.72
2023-05-02T07:53:40.101Z,99852.97
2023-05-02T07:54:42.413Z,99859.16
2023-05-02T07:55:44.609Z,99860.31
2023-05-02T07:56:47.253Z,99866.72
2023-05-02T07:57:49.421Z,99859.91
2023-05-02T07:58:51.717Z,99865.06
2023-05-02T07:59:54.004Z,99861.91
2023-05-02T08:00:57.378Z,99861.91
2023-05-02T08:01:59.773Z,99868.50
2023-05-02T08:03:02.157Z,99871.72
2023-05-02T08:04:04.789Z,99873.81
2023-05-02T08:05:08.016Z,99868.78
2023-05-02T08:06:10.524Z,99871.44
2023-05-02T08:07:12.718Z,99876.97
2023-05-02T08:08:15.188Z,99878.22
2023-05-02T08:09:17.462Z,99880.56
2023-05-02T08:10:19.724Z,99872.06
2023-05-02T08:11:23.834Z,99874.44
2023-05-02T08:12:26.334Z,99877.09
2023-05-02T08:13:28.626Z,99878.22
2023-05-02T08:14:31.675Z,99885.72
2023-05-02T08:15:34.073Z,99888.72
2023-05-02T08:16:36.378Z,99890.25
2023-05-02T08:17:38.810Z,99886.94
2023-05-02T08:18:41.316Z,99887.91
2023-05-02T08:19:44.342Z,99878.13
2023-05-02T08:20:48.164Z,99882.75
2023-05-02T08:21:50.507Z,99879.59
2023-05-02T08:22:52.899Z,99882.03
2023-05-02T08:24:00.891Z,99892.84
2023-05-02T08:25:06.374Z,99881.31
2023-05-02T08:26:08.711Z,99875.53
2023-05-02T08:27:12.709Z,99880.78
2023-05-02T08:28:15.026Z,99873.06
2023-05-02T08:29:17.307Z,99875.28
2023-05-02T08:30:19.656Z,99878.13
2023-05-02T08:31:21.872Z,99881.22
2023-05-02T08:32:24.361Z,99882.66
2023-05-02T08:33:26.622Z,99886.69
2023-05-02T08:34:28.783Z,99887.91
2023-05-02T08:35:31.344Z,99884.19
2023-05-02T08:36:33.648Z,99886.31
2023-05-02T08:37:36.665Z,99890.25
2023-05-02T08:38:39.050Z,99890.75
2023-05-02T08:39:41.394Z,99880.25
2023-05-02T08:40:43.693Z,99877.88
2023-05-02T08:41:46.072Z,99887.09
2023-05-02T08:42:48.583Z,99881.09
2023-05-02T08:43:50.834Z,99885.09
2023-05-02T08:44:53.251Z,99888.84
2023-05-02T08:45:59.819Z,99881.94
2023-05-02T08:47:03.152Z,99881.50
2023-05-02T08:48:10.421Z,99882.31
2023-05-02T08:49:15.551Z,99891.31
2023-05-02T08:50:19.092Z,99889.03
2023-05-02T08:51:23.159Z,99890.06
2023-05-02T08:52:27.084Z,99889.03
2023-05-02T08:53:34.276Z,99884.81
2023-05-02T08:54:38.702Z,99893.59
2023-05-02T08:55:42.622Z,99881.66
2023-05-02T08:56:46.244Z,99885.22
2023-05-02T08:57:49.539Z,99880.91
2023-05-02T08:58:51.883Z,99885.97
2023-05-02T08:59:54.524Z,99891.09
2023-05-02T09:01:04.575Z,99884.28
2023-05-02T09:02:16.916Z,99893.06
2023-05-02T09:03:39.514Z,99887.53
2023-05-02T09:04:43.075Z,99901.69
2023-05-02T09:05:52.279Z,99892.88
2023-05-02T09:06:54.729Z,99896.31
2023-05-02T09:07:57.104Z,99890.16
2023-05-02T09:09:00.632Z,99901.72
2023-05-02T09:10:04.434Z,99900.63
2023-05-02T09:11:08.540Z,99898.81
2023-05-02T09:12:10.761Z,99900.47
2023-05-02T09:13:30.484Z,99896.84
2023-05-02T09:14:32.817Z,99909.56
2023-05-02T09:15:35.065Z,99910.97
2023-05-02T09:16:40.082Z,99903.88
2023-05-02T09:17:47.216Z,99901.63
2023-05-02T09:18:56.318Z,99902.44
2023-05-02T09:20:01.924Z,99898.84
2023-05-02T09:21:08.704Z,99895.81
2023-05-02T09:22:10.892Z,99900.88
2023-05-02T09:23:13.219Z,99891.50
2023-05-02T09:24:20.542Z,99892.06
2023-05-02T09:25:22.780Z,99887.81
2023-05-02T09:26:33.482Z,99899.53
2023-05-02T09:27:56.234Z,99899.84
2023-05-02T09:29:00.856Z,99895.75
2023-05-02T09:30:23.061Z,99898.91
2023-05-02T09:32:46.938Z,99900.81
2023-05-02T09:33:49.743Z,99900.69
2023-05-02T09:35:07.754Z,99902.00
2023-05-02T09:36:14.026Z,99896.06
2023-05-02T09:37:34.607Z,99900.69
2023-05-02T09:38:37.761Z,99910.53
2023-05-02T09:39:39.940Z,99902.91
2023-05-02T09:40:54.486Z,99913.63
2023-05-02T09:41:57.702Z,99903.91
2023-05-02T09:42:59.865Z,99908.97
2023-05-02T09:44:02.140Z,99912.41
2023-05-02T09:45:04.655Z,99917.88
2023-05-02T09:46:09.213Z,99907.34
2023-05-02T09:47:25.144Z,99906.25
2023-05-02T09:48:28.946Z,99913.44
2023-05-02T09:49:46.792Z,99912.59
2023-05-02T09:50:49.136Z,99910.38
2023-05-02T09:52:10.783Z,99911.81
2023-05-02T09:53:13.027Z,99904.84
2023-05-02T09:54:37.005Z,99899.88
2023-05-02T09:55:39.658Z,99908.75
2023-05-02T09:56:57.317Z,99905.91
2023-05-02T09:58:00.879Z,99903.13
2023-05-02T09:59:14.473Z,99906.63
2023-05-02T10:00:19.434Z,99905.03
2023-05-02T10:01:21.777Z,99909.84
2023-05-02T10:02:25.373Z,99907.56
2023-05-02T10:03:29.083Z,99906.25
2023-05-02T10:04:32.532Z,99911.06
2023-05-02T10:05:38.735Z,99911.56
2023-05-02T10:06:41.460Z,99912.25
2023-05-02T10:07:46.137Z,99909.84
2023-05-02T10:08:48.980Z,99908.06
2023-05-02T10:09:54.681Z,99902.75
2023-05-02T10:10:58.548Z,99919.28
2023-05-02T10:12:05.033Z,99918.56
2023-05-02T10:13:09.068Z,99918.22
2023-05-02T10:14:12.380Z,99909.59
2023-05-02T10:15:16.974Z,99917.06
2023-05-02T10:16:28.905Z,99925.34
2023-05-02T10:17:34.101Z,99910.31
2023-05-02T10:19:02.630Z,99928.03
2023-05-02T10:20:06.941Z,99921.34
2023-05-02T10:21:12.058Z,99929.44
2023-05-02T10:22:14.908Z,99930.38
2023-05-02T10:23:17.290Z,99926.94
2023-05-02T10:24:21.026Z,99926.53
2023-05-02T10:25:23.281Z,99923.97
2023-05-02T10:26:25.738Z,99929.66
2023-05-02T10:27:30.700Z,99923.09
2023-05-02T10:28:34.367Z,99925.03
2023-05-02T10:29:38.692Z,99927.69
2023-05-02T10:30:41.897Z,99929.47
2023-05-02T10:31:46.027Z,99939.59
2023-05-02T10:32:49.988Z,99934.22
2023-05-02T10:33:52.991Z,99935.06
2023-05-02T10:35:03.841Z,99926.78
2023-05-02T10:36:08.665Z,99932.50
2023-05-02T10:37:12.432Z,99930.41
2023-05-02T10:38:23.420Z,99941.34
2023-05-02T10:39:27.967Z,99936.66
2023-05-02T10:40:31.899Z,99921.88
2023-05-02T10:41:35.361Z,99929.78
2023-05-02T10:42:40.140Z,99925.66
2023-05-02T10:43:47.246Z,99926.81
2023-05-02T10:44:51.058Z,99931.53
2023-05-02T10:45:54.797Z,99923.13
2023-05-02T10:46:57.876Z,99927.28
2023-05-02T10:48:20.154Z,99927.97
2023-05-02T10:49:24.845Z,99924.91
2023-05-02T10:50:43.262Z,99932.59
2023-05-02T10:51:45.827Z,99928.22
2023-05-02T10:52:48.069Z,99921.09
2023-05-02T10:53:50.445Z,99932.16
2023-05-02T10:54:52.646Z,99935.75
2023-05-02T10:56:21.796Z,99937.03
2023-05-02T10:57:24.022Z,99927.34
2023-05-02T10:58:26.321Z,99935.41
2023-05-02T10:59:34.087Z,99921.47
2023-05-02T11:00:36.716Z,99927.00
2023-05-02T11:01:39.934Z,99925.19
2023-05-02T11:02:42.433Z,99936.56
2023-05-02T11:03:58.519Z,99924.16
2023-05-02T11:05:07.648Z,99923.19
2023-05-02T11:06:09.872Z,99925.59
2023-05-02T11:07:14.806Z,99921.97
2023-05-02T11:08:19.447Z,99925.53
2023-05-02T11:09:23.439Z,99921.59
2023-05-02T11:10:27.249Z,99924.38
2023-05-02T11:11:42.994Z,99927.09
2023-05-02T11:13:01.443Z,99923.00
2023-05-02T11:14:03.846Z,99911.97
2023-05-02T11:15:06.746Z,99918.59
2023-05-02T11:16:08.935Z,99918.75
2023-05-02T11:17:11.216Z,99908.28
2023-05-02T11:18:14.477Z,99926.50
2023-05-02T11:19:16.875Z,99918.94
2023-05-02T11:20:20.391Z,99919.47
2023-05-02T11:21:28.616Z,99908.50
2023-05-02T11:22:32.179Z,99922.88
2023-05-02T11:23:36.824Z,99912.09
2023-05-02T11:24:44.406Z,99918.81
2023-05-02T11:25:48.960Z,99920.88
2023-05-02T11:26:51.148Z,99908.34
2023-05-02T11:27:53.312Z,99918.03
2023-05-02T11:28:55.552Z,99928.03
2023-05-02T11:30:06.608Z,99923.69
2023-05-02T11:31:29.492Z,99926.00
2023-05-02T11:32:44.296Z,99909.84
2023-05-02T11:33:56.182Z,99910.47
2023-05-02T11:34:59.037Z,99917.19
2023-05-02T11:36:01.909Z,99907.50
2023-05-02T11:37:15.325Z,99914.16
2023-05-02T11:38:19.908Z,99907.75
2023-05-02T11:39:22.921Z,99918.75
2023-05-02T11:40:27.130Z,99909.81
2023-05-02T11:41:39.828Z,99909.41
2023-05-02T11:42:42.196Z,99906.53
2023-05-02T11:43:44.419Z,99901.44
2023-05-02T11:45:00.411Z,99907.13
2023-05-02T11:46:03.460Z,99902.00
2023-05-02T11:47:05.708Z,99901.34
2023-05-02T11:48:09.092Z,99902.84
2023-05-02T11:49:14.696Z,99904.81
2023-05-02T11:50:17.992Z,99900.06
2023-05-02T11:51:23.249Z,99905.28
2023-05-02T11:52:25.619Z,99903.16
2023-05-02T11:53:29.395Z,99904.00
2023-05-02T11:54:32.179Z,99909.00
2023-05-02T11:55:35.400Z,99912.19
2023-05-02T11:56:37.829Z,99905.81
2023-05-02T11:57:40.529Z,99908.53
2023-05-02T11:58:44.014Z,99912.28
2023-05-02T11:59:53.213Z,99921.59
2023-05-02T12:00:57.050Z,99920.75
2023-05-02T12:01:59.344Z,99919.94
2023-05-02T12:03:02.050Z,99911.00
2023-05-02T12:04:10.356Z,99918.50
2023-05-02T12:05:13.973Z,99915.47
2023-05-02T12:06:19.455Z,99913.66
2023-05-02T12:07:38.227Z,99919.16
2023-05-02T12:08:41.554Z,99913.16
2023-05-02T12:09:53.779Z,99918.28
2023-05-02T12:10:56.960Z,99917.44
2023-05-02T12:11:59.598Z,99912.13
2023-05-02T12:13:06.108Z,99911.97
2023-05-02T12:14:09.139Z,99912.25
2023-05-02T12:15:12.690Z,99914.13
2023-05-02T12:16:15.849Z,99908.06
2023-05-02T12:17:18.202Z,99911.03
2023-05-02T12:18:23.820Z,99908.78
2023-05-02T12:19:27.146Z,99909.13
2023-05-02T12:20:29.463Z,99912.63
2023-05-02T12:21:33.254Z,99906.59
2023-05-02T12:22:36.091Z,99906.13
2023-05-02T12:23:40.113Z,99895.47
2023-05-02T12:24:43.490Z,99907.50
2023-05-02T12:25:45.906Z,99913.22
2023-05-02T12:26:48.320Z,99910.66
2023-05-02T12:28:03.386Z,99918.78
2023-05-02T12:29:07.815Z,99905.38
2023-05-02T12:30:25.911Z,99915.19
2023-05-02T12:31:30.960Z,99917.69
2023-05-02T12:32:36.283Z,99914.34
2023-05-02T12:33:51.688Z,99912.94
2023-05-02T12:34:53.835Z,99917.34
2023-05-02T12:36:06.688Z,99915.09
2023-05-02T12:37:09.588Z,99917.69
2023-05-02T12:38:15.917Z,99926.09
2023-05-02T12:39:18.067Z,99914.72
2023-05-02T12:40:20.629Z,99918.09
2023-05-02T12:41:31.325Z,99917.25
2023-05-02T12:42:34.443Z,99911.47
2023-05-02T12:43:51.064Z,99916.31
2023-05-02T12:44:53.494Z,99908.56
2023-05-02T12:46:11.706Z,99920.72